Flight Track Log - Related Links

Times and Time Zones

All times are in EDT time to prevent confusion due to time zone crossing. See the N429UA flight status page for this flight to view local times or setup timezone preferences in your user account.

Time Position Orientation Groundspeed Altitude Reporting Facility
EDT Latitude Longitude Course Direction KTS MPH feet Rate Location/Type
Fri 11:41:15 AM 41.9861 -87.8679 58° Northeast  Level FlightAware Approximate
Fri 11:42:15 AM 42.0000 -87.7146 354° North  Level FlightAware Approximate
Fri 11:43:44 AM 42.0533 -87.7225 66° East 241 277 5,700  Level Chicago Center
Fri 11:44:44 AM 42.0853 -87.6264 63° Northeast 252 290 8,600 2,700 Climbing Chicago Center
Fri 11:45:44 AM 42.1214 -87.5303 64° Northeast 283 326 11,100 2,250 Climbing Chicago Center
Fri 11:46:44 AM 42.1633 -87.4142 69° East 314 361 13,100 2,200 Climbing Chicago Center
Fri 11:47:44 AM 42.1986 -87.2869 86° East 338 389 15,500 2,250 Climbing Chicago Center
Fri 11:48:44 AM 42.2064 -87.1439 86° East 355 409 17,600 2,050 Climbing Chicago Center
Fri 11:49:44 AM 42.2139 -86.9978 85° East 377 434 19,600 1,850 Climbing Chicago Center
Fri 11:50:44 AM 42.2231 -86.8458 87° East 392 451 21,300 1,550 Climbing Chicago Center
Fri 11:51:44 AM 42.2300 -86.6886 87° East 411 473 22,700 1,450 Climbing Chicago Center
Fri 11:52:44 AM 42.2364 -86.5228 86° East 422 486 24,200 1,400 Climbing Chicago Center
Fri 11:53:44 AM 42.2447 -86.3569 87° East 435 501 25,500 1,350 Climbing Chicago Center
Fri 11:54:44 AM 42.2506 -86.1883 85° East 441 507 26,900 1,300 Climbing Chicago Center
Fri 11:55:44 AM 42.2619 -85.9969 88° East 452 520 28,100 1,050 Climbing Chicago Center
Fri 11:56:44 AM 42.2672 -85.8256 87° East 457 526 29,000 -50 Climbing Chicago Center
Fri 11:57:44 AM 42.2742 -85.6511 86° East 462 532 28,000 -1,368 Descending Chicago Center
Fri 11:59:35 AM 42.2878 -85.3639 88° East 459 528 25,100 -1,053 Descending Cleveland Center
Fri 12:00:35 PM 42.2922 -85.2042 88° East 440 506 25,000 -50 Descending Cleveland Center
Fri 12:01:35 PM 42.2972 -85.0275 91° East 428 493 25,000  Level Cleveland Center
Fri 12:02:35 PM 42.2950 -84.8644 92° East 428 493 25,000  Level Cleveland Center
Fri 12:03:35 PM 42.2903 -84.7042 92° East 428 493 25,000  Level Cleveland Center
Fri 12:04:35 PM 42.2853 -84.5522 85° East 434 499 25,000 -50 Level Cleveland Center
Fri 12:05:35 PM 42.2947 -84.3956 79° East 422 486 24,900  Descending Cleveland Center
Fri 12:06:35 PM 42.3192 -84.2228 79° East 422 486 25,000 50 Climbing Cleveland Center
Fri 12:07:35 PM 42.3428 -84.0639 80° East 427 491 25,000 -50 Level Cleveland Center
Fri 12:08:35 PM 42.3644 -83.9022 79° East 427 491 24,900 -50 Descending Cleveland Center
Fri 12:09:35 PM 42.3875 -83.7431 80° East 427 491 24,900  Level Cleveland Center
Fri 12:10:35 PM 42.4086 -83.5839 87° East 427 491 24,900 50 Level Cleveland Center
Fri 12:11:35 PM 42.4147 -83.4181 87° East 427 491 25,000 50 Climbing Cleveland Center
Fri 12:12:35 PM 42.4208 -83.2553 87° East 427 491 25,000  Level Cleveland Center
Fri 12:13:35 PM 42.4264 -83.1064 88° East 437 503 25,000 -50 Level Cleveland Center
Fri 12:14:35 PM 42.4297 -82.9406 88° East 437 503 24,900 -50 Descending Cleveland Center
Fri 12:15:35 PM 42.4353 -82.7636 87° East 437 503 24,900 50 Level Cleveland Center
Fri 12:16:35 PM 42.4406 -82.5978 88° East 437 503 25,000 50 Climbing Cleveland Center
Fri 12:17:35 PM 42.4453 -82.4289 88° East 444 511 25,000  Level Cleveland Center
Fri 12:18:35 PM 42.4500 -82.2603 88° East 439 505 25,000  Level Cleveland Center
Fri 12:19:35 PM 42.4542 -82.1111 88° East 439 505 25,000  Level Cleveland Center
Fri 12:20:35 PM 42.4586 -81.9256 89° East 439 505 25,000 -50 Level Cleveland Center
Fri 12:21:35 PM 42.4603 -81.7736 87° East 439 505 24,900  Descending Cleveland Center
Fri 12:22:35 PM 42.4661 -81.5936 88° East 439 505 25,000 50 Climbing Cleveland Center
Fri 12:23:35 PM 42.4697 -81.4247 89° East 439 505 25,000  Level Cleveland Center
Fri 12:24:35 PM 42.4708 -81.2586 88° East 439 505 25,000  Level Cleveland Center
Fri 12:25:35 PM 42.4758 -81.0928 90° East 445 512 25,000  Level Cleveland Center
Fri 12:26:35 PM 42.4764 -80.9239 89° East 445 512 25,000  Level Cleveland Center
Fri 12:27:35 PM 42.4789 -80.7550 88° East 439 505 25,000  Level Cleveland Center
Fri 12:28:35 PM 42.4831 -80.5861 89° East 445 512 25,000  Level Cleveland Center
Fri 12:29:35 PM 42.4850 -80.4169 89° East 438 504 25,000  Level Cleveland Center
Fri 12:30:35 PM 42.4869 -80.2706 88° East 438 504 25,000  Level Cleveland Center
Fri 12:31:35 PM 42.4906 -80.1017 85° East 438 504 25,000  Level Cleveland Center
Fri 12:32:35 PM 42.5022 -79.9356 85° East 445 512 25,000  Level Cleveland Center
Fri 12:33:35 PM 42.5136 -79.7692 84° East 445 512 25,000  Level Cleveland Center
Fri 12:34:35 PM 42.5269 -79.6000 86° East 445 512 25,000  Level Cleveland Center
Fri 12:35:35 PM 42.5358 -79.4308 85° East 445 512 25,000  Level Cleveland Center
Fri 12:36:35 PM 42.5464 -79.2614 86° East 451 519 25,000  Level Cleveland Center
Fri 12:37:36 PM 42.5547 -79.0950 85° East 445 512 25,000  Level Cleveland Center
Fri 12:38:35 PM 42.5650 -78.9256 85° East 445 512 25,000  Level Cleveland Center
Fri 12:39:35 PM 42.5767 -78.7392 85° East 445 512 25,000  Level Cleveland Center
Fri 12:40:35 PM 42.5864 -78.5697 87° East 451 519 25,000  Level Cleveland Center
Fri 12:41:35 PM 42.5936 -78.3944 86° East 451 519 25,000  Level Cleveland Center
Fri 12:42:35 PM 42.6028 -78.2222 86° East 459 528 25,000  Level Cleveland Center
Fri 12:43:35 PM 42.6117 -78.0497 86° East 467 537 25,000  Level Cleveland Center
Fri 12:44:35 PM 42.6203 -77.8800 86° East 461 531 25,000  Level Cleveland Center
Fri 12:45:35 PM 42.6289 -77.7103 85° East 461 531 25,000  Level Cleveland Center
Fri 12:46:35 PM 42.6389 -77.5406 88° East 456 525 25,000  Level Cleveland Center
Fri 12:47:35 PM 42.6444 -77.3622 86° East 462 532 25,000  Level Cleveland Center
Fri 12:49:03 PM 42.6567 -77.1078 87° East 487 560 25,000  Level Boston Center
Fri 12:50:03 PM 42.6639 -76.9331 87° East 471 542 25,000  Level Boston Center
Fri 12:51:03 PM 42.6706 -76.7583 87° East 466 536 25,000  Level Boston Center
Fri 12:52:03 PM 42.6769 -76.5892 87° East 449 517 25,000  Level Boston Center
Fri 12:53:03 PM 42.6831 -76.4172 86° East 449 517 25,000  Level Boston Center
Fri 12:54:03 PM 42.6903 -76.2653 88° East 449 517 25,000  Level Boston Center
Fri 12:55:03 PM 42.6939 -76.0931 88° East 449 517 25,000  Level Boston Center
Fri 12:56:03 PM 42.6992 -75.9239 88° East 449 517 25,000  Level Boston Center
Fri 12:57:03 PM 42.7044 -75.7517 88° East 449 517 25,000  Level Boston Center
Fri 12:58:03 PM 42.7094 -75.5767 88° East 455 524 25,000  Level Boston Center
Fri 12:59:03 PM 42.7139 -75.4072 88° East 455 524 25,000  Level Boston Center
Fri 01:00:03 PM 42.7181 -75.2408 88° East 455 524 25,000  Level Boston Center
Fri 01:01:03 PM 42.7228 -75.0489 88° East 455 524 25,000  Level Boston Center
Fri 01:02:03 PM 42.7264 -74.8764 87° East 455 524 25,000  Level Boston Center
Fri 01:03:03 PM 42.7322 -74.7042 88° East 455 524 25,000  Level Boston Center
Fri 01:04:03 PM 42.7356 -74.5319 90° East 455 524 25,000  Level Boston Center
Fri 01:05:03 PM 42.7364 -74.3594 96° East 455 524 25,000  Level Boston Center
Fri 01:06:03 PM 42.7225 -74.1867 95° East 455 524 25,000  Level Boston Center
Fri 01:07:03 PM 42.7106 -74.0167 95° East 460 529 25,000  Level Boston Center
Fri 01:08:03 PM 42.7003 -73.8469 97° East 460 529 25,000  Level Boston Center
Fri 01:09:03 PM 42.6856 -73.6744 96° East 460 529 25,000  Level Boston Center
Fri 01:10:03 PM 42.6725 -73.5047 96° East 460 529 25,000  Level Boston Center
Fri 01:11:03 PM 42.6594 -73.3322 97° East 460 529 25,000  Level Boston Center
Fri 01:12:03 PM 42.6442 -73.1597 96° East 460 529 25,000  Level Boston Center
Fri 01:13:03 PM 42.6325 -73.0044 97° East 460 529 25,000 -300 Level Boston Center
Fri 01:14:03 PM 42.6144 -72.8153 97° East 466 536 24,400 -1,050 Descending Boston Center
Fri 01:15:03 PM 42.6003 -72.6517 97° East 460 529 22,900 -1,700 Descending Boston Center
Fri 01:16:03 PM 42.5858 -72.4825 96° East 446 513 21,000 -1,900 Descending Boston Center
Fri 01:17:03 PM 42.5733 -72.3244 98° East 435 501 19,100 -1,950 Descending Boston Center
Fri 01:18:03 PM 42.5586 -72.1753 98° East 409 471 17,100 -1,800 Descending Boston Center
Fri 01:19:03 PM 42.5433 -72.0314 97° East 394 453 15,500 -1,700 Descending Boston Center
Fri 01:20:03 PM 42.5303 -71.8906 96° East 382 440 13,700 -1,500 Descending Boston Center
Fri 01:21:03 PM 42.5192 -71.7583 94° East 366 421 12,500 -850 Descending Boston Center
Fri 01:22:03 PM 42.5122 -71.6344 81° East 341 392 12,000 -550 Descending Boston Center
Fri 01:23:03 PM 42.5239 -71.5331 79° East 298 343 11,400 -850 Descending Boston Center
Fri 01:24:03 PM 42.5378 -71.4342 87° East 264 304 10,300 -1,150 Descending Boston Center
Fri 01:25:03 PM 42.5411 -71.3467 167° South 258 297 9,100 -1,150 Descending Boston Center
Fri 01:26:03 PM 42.4719 -71.3256 199° South 184 212 8,000 -1,200 Descending Boston Center
Fri 01:27:03 PM 42.4139 -71.3519 174° South 216 249 6,700 -1,000 Descending Boston Center
Fri 01:28:03 PM 42.3450 -71.3417 111° Southeast 237 273 6,000 -350 Descending Boston Center
Fri 01:29:03 PM 42.3233 -71.2636 68° East 188 216 6,000  Level Boston Center
Fri 01:30:03 PM 42.3456 -71.1872 52° Northeast 188 216 6,000  Level Boston Center
Fri 01:31:03 PM 42.3783 -71.1303 28° Northeast 209 241 6,000  Level Boston Center
Fri 01:32:03 PM 42.4342 -71.0897 21° North 203 234 6,000  Level Boston Center
Fri 01:33:03 PM 42.4797 -71.0664 20° North 203 234 6,000 -150 Level Boston Center
Fri 01:34:03 PM 42.5397 -71.0369 19° North 203 234 5,700 -423 Descending Boston Center
Fri 01:35:25 PM 42.6167 -71.0000 20° North 183 211 5,000 -338 Descending Boston TRACON
Fri 01:36:25 PM 42.6500 -70.9833 26° Northeast 179 206 4,900 -50 Descending Boston TRACON
Fri 01:37:26 PM 42.7000 -70.9500 114° Southeast 176 203 4,900  Level Boston TRACON
Fri 01:38:26 PM 42.6833 -70.9000 166° South 209 241 4,900  Level Boston TRACON
Fri 01:39:26 PM 42.6333 -70.8833 194° South 202 232 4,900 -350 Level Boston TRACON
Fri 01:40:26 PM 42.5833 -70.9000 194° South 194 223 4,200 -789 Descending Boston TRACON
Fri 01:41:20 PM 42.5333 -70.9167 194° South 194 223 3,400 -889 Descending Boston TRACON

Login

Don't have an account? Register now (free) for customized features, flight alerts, and more!